Data for 03/14/2008

Time Sea-Level Adjusted Pressure Absolute Pressure Temperature Relative Humidity Dew Point   
(mb) (inHg) (mb) (inHg) (C) (F) (%) (C) (F)
00:05 1008 29.77 837 24.72 0.7 33.2 76 -3.1 26.3
00:10 1008 29.77 837 24.72 0.6 33.1 75 -3.3 26
00:15 1008 29.77 837 24.72 0.6 33.1 75 -3.4 25.9
00:20 1008 29.77 837 24.72 0.6 33.1 75 -3.3 26
00:25 1008 29.77 837 24.72 0.5 32.9 75 -3.5 25.8
00:30 1008 29.77 837 24.72 0.5 32.8 75 -3.4 25.9
00:35 1008 29.77 837 24.72 0.5 32.9 77 -3.1 26.5
00:40 1008 29.77 837 24.72 0.6 33 79 -2.7 27.2
00:45 1008 29.77 837 24.72 0.4 32.7 78 -3 26.6
00:50 1008 29.77 837 24.72 0.5 32.9 79 -2.8 27
00:55 1008 29.77 837 24.72 0.4 32.7 77 -3.1 26.4
01:00 1008 29.77 837 24.72 0.2 32.3 77 -3.4 26
01:05 1008 29.77 837 24.72 0.1 32.2 77 -3.4 25.9
01:10 1008 29.77 837 24.72 0.1 32.2 80 -2.9 26.8
01:15 1008 29.77 837 24.72 0.2 32.3 83 -2.3 27.8
01:20 1008 29.77 837 24.72 -0 32 83 -2.6 27.3
01:25 1008 29.77 837 24.72 -0 32 85 -2.2 28
01:30 1008 29.77 837 24.72 -0 32 87 -2 28.5
01:35 1008 29.77 837 24.72 -0 32 88 -1.8 28.8
01:40 1008 29.77 837 24.72 0 32 90 -1.5 29.3
01:45 1008 29.77 837 24.72 -0.3 31.5 90 -1.7 28.9
01:50 1008 29.77 837 24.72 -0.3 31.5 91 -1.6 29.2
01:55 1008 29.77 837 24.72 -0.3 31.4 92 -1.5 29.4
02:00 1008 29.77 837 24.72 -0.4 31.4 93 -1.4 29.5
02:05 1008 29.77 837 24.72 -0.4 31.3 93 -1.4 29.5
02:10 1008 29.77 837 24.72 -0.4 31.2 94 -1.3 29.6
02:15 1008 29.77 837 24.72 -0.3 31.5 94 -1.2 29.9
02:20 1008 29.77 838 24.75 -0.3 31.5 95 -1.1 30.1
02:25 1008 29.77 838 24.75 -0.2 31.6 94 -1 30.1
02:30 1008 29.77 838 24.75 -0.4 31.3 95 -1.1 30
02:35 1008 29.77 838 24.75 -0.2 31.6 94 -1 30.2
02:40 1008 29.77 838 24.75 -0.3 31.5 95 -1.1 30.1
02:45 1008 29.77 838 24.75 -0.3 31.4 95 -1.1 30.1
02:50 1008 29.77 838 24.75 -0.4 31.3 95 -1.1 30
02:55 1008 29.77 838 24.75 -0.5 31.2 95 -1.2 29.9
03:00 1008 29.77 838 24.75 -0.4 31.2 95 -1.1 30
03:05 1008 29.77 838 24.75 -0.4 31.2 95 -1.2 29.9
03:10 1008 29.77 838 24.75 -0.5 31.1 95 -1.2 29.8
03:15 1008 29.77 838 24.75 -0.5 31.1 95 -1.2 29.9
03:20 1008 29.77 838 24.75 -0.5 31 95 -1.2 29.9
03:25 1008 29.77 838 24.75 -0.6 30.9 95 -1.2 29.8
03:30 1008 29.77 838 24.75 -0.7 30.8 95 -1.3 29.7
03:35 1008 29.77 838 24.75 -0.7 30.7 95 -1.4 29.5
03:40 1008 29.77 838 24.75 -0.8 30.6 95 -1.5 29.3
03:45 1008 29.77 838 24.75 -0.8 30.5 95 -1.5 29.3
03:50 1008 29.77 838 24.75 -0.8 30.5 95 -1.5 29.3
03:55 1008 29.77 838 24.75 -0.9 30.3 95 -1.7 29
04:00 1008 29.77 838 24.75 -1 30.2 95 -1.7 28.9
04:05 1008 29.77 838 24.75 -1.1 30 95 -1.8 28.7
04:10 1008 29.77 838 24.75 -1.2 29.9 95 -1.9 28.6
04:15 1008 29.77 838 24.75 -1.2 29.8 95 -2 28.4
04:20 1008 29.77 838 24.75 -1.2 29.8 95 -2 28.4
04:25 1008 29.77 838 24.75 -1.2 29.8 94 -2 28.3
04:30 1008 29.77 838 24.75 -1.2 29.9 94 -2.1 28.3
04:35 1008 29.77 838 24.75 -1.2 29.8 94 -2.1 28.2
04:40 1008 29.77 838 24.75 -1.3 29.7 94 -2.2 28.1
04:45 1008 29.77 838 24.75 -1.3 29.7 94 -2.1 28.3
04:50 1008 29.77 838 24.75 -1.1 29.9 94 -2 28.5
04:55 1008 29.77 838 24.75 -1.2 29.9 94 -2 28.3
05:00 1008 29.77 838 24.75 -1.3 29.6 94 -2.1 28.1
05:05 1008 29.77 838 24.75 -1.4 29.5 95 -2.1 28.2
05:10 1009 29.8 838 24.75 -1.5 29.3 94 -2.3 27.8
05:15 1009 29.8 838 24.75 -1.8 28.8 94 -2.7 27.2
05:20 1009 29.8 838 24.75 -2.1 28.3 94 -2.9 26.8
05:25 1009 29.8 838 24.75 -2.2 28 94 -3.1 26.5
05:30 1009 29.8 838 24.75 -2.4 27.6 94 -3.2 26.2
05:35 1009 29.8 838 24.75 -2.5 27.4 94 -3.3 26
05:40 1009 29.8 838 24.75 -2.7 27.1 94 -3.5 25.7
05:45 1009 29.8 838 24.75 -2.9 26.9 94 -3.7 25.4
05:50 1009 29.8 838 24.75 -2.9 26.7 94 -3.8 25.2
05:55 1009 29.8 838 24.75 -3 26.6 94 -3.8 25.1
06:00 1009 29.8 838 24.75 -3 26.6 94 -3.9 25
06:05 1009 29.8 838 24.75 -3 26.5 94 -3.9 25
06:10 1009 29.8 838 24.75 -3 26.5 94 -3.9 25
06:15 1009 29.8 838 24.75 -3 26.6 94 -3.9 25
06:20 1009 29.8 838 24.75 -2.9 26.7 93 -3.9 25
06:25 1009 29.8 838 24.75 -2.9 26.7 93 -3.9 25
06:30 1009 29.8 838 24.75 -2.9 26.8 93 -3.9 25
06:35 1009 29.8 838 24.75 -2.8 26.9 92 -3.9 24.9
06:40 1009 29.8 838 24.75 -2.8 27 92 -3.9 24.9
06:45 1009 29.8 838 24.75 -2.7 27.2 91 -3.9 25
06:50 1009 29.8 838 24.75 -2.6 27.2 91 -3.9 24.9
06:55 1009 29.8 838 24.75 -2.5 27.4 90 -3.9 24.9
07:00 1009 29.8 838 24.75 -2.5 27.5 90 -3.9 25
07:05 1009 29.8 838 24.75 -2.5 27.6 90 -3.9 24.9
07:10 1009 29.8 838 24.75 -2.5 27.5 90 -4 24.9
07:15 1009 29.8 838 24.75 -2.5 27.5 89 -4 24.8
07:20 1009 29.8 838 24.75 -2.5 27.5 89 -4 24.7
07:25 1009 29.8 838 24.75 -2.5 27.5 89 -4.1 24.6
07:30 1009 29.8 838 24.75 -2.5 27.5 89 -4.1 24.6
07:35 1009 29.8 838 24.75 -2.5 27.5 88 -4.2 24.5
07:40 1009 29.8 838 24.75 -2.5 27.5 88 -4.2 24.4
07:45 1009 29.8 838 24.75 -2.6 27.4 88 -4.2 24.4
07:50 1009 29.8 838 24.75 -2.6 27.4 88 -4.3 24.3
07:55 1009 29.8 838 24.75 -2.6 27.4 88 -4.3 24.3
08:00 1009 29.8 838 24.75 -2.6 27.3 88 -4.3 24.3
08:05 1009 29.8 838 24.75 -2.6 27.4 88 -4.3 24.3
08:10 1009 29.8 838 24.75 -2.6 27.4 88 -4.2 24.4
08:15 1009 29.8 838 24.75 -2.5 27.4 88 -4.2 24.4
08:20 1009 29.8 838 24.75 -2.5 27.5 88 -4.2 24.5
08:25 1009 29.8 838 24.75 -2.4 27.6 88 -4.1 24.6
08:30 1009 29.8 838 24.75 -2.3 27.8 88 -4 24.8
08:35 1009 29.8 838 24.75 -2.3 27.8 89 -4 24.9
08:40 1009 29.8 838 24.75 -2.2 28 89 -3.9 25
08:45 1009 29.8 838 24.75 -2.1 28.2 88 -3.8 25.2
08:50 1009 29.8 838 24.75 -2 28.4 88 -3.7 25.4
08:55 1009 29.8 838 24.75 -1.9 28.6 88 -3.6 25.5
09:00 1009 29.8 838 24.75 -1.7 28.9 88 -3.5 25.7
09:05 1009 29.8 838 24.75 -1.5 29.2 88 -3.3 26.1
09:10 1009 29.8 839 24.78 -1.3 29.6 88 -3.1 26.4
09:15 1009 29.8 839 24.78 -1.2 29.8 88 -3 26.6
09:20 1009 29.8 839 24.78 -1.1 30 88 -2.9 26.8
09:25 1009 29.8 839 24.78 -1 30.3 87 -2.8 26.9
09:30 1009 29.8 839 24.78 -0.9 30.4 87 -2.7 27.1
09:35 1009 29.8 839 24.78 -0.7 30.7 87 -2.7 27.2
09:40 1009 29.8 839 24.78 -0.5 31 86 -2.6 27.3
09:45 1009 29.8 839 24.78 -0.5 31.1 87 -2.5 27.6
09:50 1010 29.83 839 24.78 -0.1 31.8 85 -2.3 27.9
09:55 1010 29.83 839 24.78 0.2 32.3 84 -2.1 28.1
10:00 1010 29.83 839 24.78 0.1 32.2 85 -2.1 28.1
10:05 1010 29.83 839 24.78 0.2 32.3 85 -2.1 28.1
10:10 1010 29.83 839 24.78 0.4 32.8 84 -2 28.5
10:15 1010 29.83 839 24.78 0.6 33 84 -1.8 28.7
10:20 1010 29.83 839 24.78 0.6 33.1 83 -1.9 28.5
10:25 1010 29.83 839 24.78 0.7 33.2 84 -1.8 28.8
10:30 1010 29.83 839 24.78 1.1 34 83 -1.5 29.3
10:35 1010 29.83 839 24.78 1.4 34.6 81 -1.4 29.5
10:40 1010 29.83 839 24.78 1.7 35.1 81 -1.2 29.8
10:45 1010 29.83 839 24.78 1.7 35.1 79 -1.5 29.3
10:50 1010 29.83 839 24.78 1.7 35.1 79 -1.5 29.3
10:55 1010 29.83 839 24.78 1.8 35.2 80 -1.3 29.6
11:00 1010 29.83 839 24.78 2 35.6 79 -1.3 29.7
11:05 1010 29.83 839 24.78 1.9 35.4 79 -1.3 29.7
11:10 1010 29.83 839 24.78 2.2 35.9 79 -1.1 30
11:15 1010 29.83 839 24.78 2.5 36.5 78 -1 30.2
11:20 1010 29.83 839 24.78 2.5 36.5 77 -1.1 30.1
11:25 1010 29.83 839 24.78 2.3 36.1 77 -1.3 29.7
11:30 1010 29.83 839 24.78 1.9 35.4 78 -1.5 29.4
11:35 1010 29.83 839 24.78 1.8 35.2 79 -1.4 29.4
11:40 1010 29.83 839 24.78 2.1 35.7 78 -1.4 29.5
11:45 1010 29.83 839 24.78 2 35.7 79 -1.3 29.7
11:50 1010 29.83 839 24.78 2.4 36.4 77 -1.3 29.7
11:55 1010 29.83 839 24.78 3 37.3 76 -0.8 30.6
12:00 1010 29.83 839 24.78 3 37.3 75 -1.1 30
12:05 1010 29.83 839 24.78 2.8 37 74 -1.3 29.6
12:10 1010 29.83 839 24.78 3.1 37.6 73 -1.2 29.9
12:15 1010 29.83 839 24.78 3.1 37.7 71 -1.6 29.2
12:20 1010 29.83 839 24.78 3.6 38.6 70 -1.4 29.5
12:25 1010 29.83 839 24.78 3.8 38.9 68 -1.5 29.3
12:30 1010 29.83 839 24.78 3.9 39.1 69 -1.3 29.7
12:35 1010 29.83 839 24.78 4.6 40.2 65 -1.4 29.5
12:40 1010 29.83 839 24.78 5.1 41.1 63 -1.4 29.5
12:45 1010 29.83 839 24.78 4.2 39.6 64 -1.9 28.5
12:50 1010 29.83 839 24.78 3.4 38.1 64 -2.8 26.9
12:55 1010 29.83 839 24.78 3.6 38.4 64 -2.7 27.1
13:00 1009 29.8 839 24.78 4.3 39.8 61 -2.5 27.6
13:05 1009 29.8 839 24.78 4.6 40.3 62 -2.1 28.3
13:10 1009 29.8 839 24.78 5.1 41.1 59 -2.2 28
13:15 1009 29.8 839 24.78 4 39.2 61 -2.8 26.9
13:20 1009 29.8 839 24.78 3.3 37.9 62 -3.2 26.3
13:25 1009 29.8 838 24.75 3.2 37.8 64 -2.9 26.8
13:30 1009 29.8 838 24.75 3.8 38.9 61 -3.1 26.5
13:35 1009 29.8 838 24.75 4 39.2 61 -2.9 26.8
13:40 1009 29.8 838 24.75 5.2 41.3 57 -2.7 27.2
13:45 1009 29.8 838 24.75 5.7 42.3 53 -3.2 26.3
13:50 1009 29.8 838 24.75 5.5 41.8 54 -3.2 26.2
13:55 1009 29.8 838 24.75 6.5 43.6 50 -3.3 26.1
14:00 1009 29.8 838 24.75 6.2 43.1 51 -3.3 26.1
14:05 1009 29.8 838 24.75 5.9 42.5 52 -3.3 26
14:10 1009 29.8 838 24.75 4.9 40.8 54 -3.6 25.5
14:15 1009 29.8 838 24.75 3.7 38.7 59 -3.5 25.6
14:20 1009 29.8 838 24.75 3.6 38.5 59 -3.6 25.5
14:25 1009 29.8 838 24.75 3.3 37.9 60 -3.7 25.4
14:30 1009 29.8 838 24.75 2.9 37.2 62 -3.7 25.3
14:35 1009 29.8 838 24.75 2.2 35.9 64 -3.9 24.9
14:40 1009 29.8 838 24.75 2.4 36.3 64 -3.7 25.4
14:45 1009 29.8 838 24.75 2.3 36.2 62 -4.2 24.5
14:50 1009 29.8 838 24.75 2.5 36.4 60 -4.5 23.9
14:55 1009 29.8 838 24.75 2.6 36.7 60 -4.4 24
15:00 1009 29.8 838 24.75 3.2 37.7 54 -5.1 22.8
15:05 1009 29.8 838 24.75 3.5 38.4 51 -5.7 21.7
15:10 1009 29.8 838 24.75 3.8 38.8 49 -5.9 21.5
15:15 1008 29.77 838 24.75 3.9 39 49 -5.9 21.4
15:20 1008 29.77 838 24.75 5.1 41.1 45 -5.8 21.6
15:25 1008 29.77 838 24.75 6 42.8 41 -6.4 20.5
15:30 1008 29.77 838 24.75 5.7 42.2 41 -6.5 20.2
15:35 1008 29.77 838 24.75 5.5 41.9 42 -6.5 20.3
15:40 1008 29.77 838 24.75 4.9 40.9 47 -5.5 22.1
15:45 1008 29.77 838 24.75 4.6 40.3 49 -5.1 22.8
15:50 1008 29.77 838 24.75 3.4 38.1 51 -5.8 21.6
15:55 1008 29.77 838 24.75 3.1 37.5 57 -4.7 23.6
16:00 1008 29.77 838 24.75 2.9 37.2 59 -4.3 24.3
16:05 1008 29.77 838 24.75 3.3 37.9 57 -4.3 24.3
16:10 1008 29.77 838 24.75 3.3 37.9 59 -4 24.8
16:15 1008 29.77 838 24.75 3.5 38.4 58 -4 24.8
16:20 1008 29.77 838 24.75 3.3 37.9 60 -3.7 25.3
16:25 1008 29.77 838 24.75 3.2 37.8 56 -4.6 23.7
16:30 1008 29.77 838 24.75 3.5 38.2 55 -4.7 23.5
16:35 1009 29.8 838 24.75 3.8 38.8 54 -4.8 23.4
16:40 1009 29.8 838 24.75 3.3 38 55 -4.9 23.2
16:45 1009 29.8 838 24.75 4 39.3 52 -4.8 23.3
16:50 1009 29.8 838 24.75 3.9 39 54 -4.7 23.6
16:55 1009 29.8 838 24.75 3.2 37.8 55 -5 23.1
17:00 1009 29.8 838 24.75 2.9 37.2 56 -5 23.1
17:05 1009 29.8 838 24.75 2.8 37.1 55 -5.3 22.5
17:10 1009 29.8 838 24.75 2.8 37.1 55 -5.4 22.3
17:15 1008 29.77 838 24.75 2.7 36.8 55 -5.4 22.3
17:20 1009 29.8 838 24.75 2.9 37.3 53 -5.7 21.8
17:25 1009 29.8 838 24.75 3.1 37.5 52 -5.9 21.3
17:30 1009 29.8 838 24.75 3.1 37.7 52 -5.9 21.4
17:35 1009 29.8 838 24.75 3.6 38.4 50 -5.9 21.4
17:40 1009 29.8 838 24.75 3.7 38.7 50 -5.9 21.4
17:45 1009 29.8 838 24.75 3.5 38.2 52 -5.5 22.1
17:50 1009 29.8 838 24.75 3 37.4 56 -4.9 23.2
17:55 1009 29.8 838 24.75 2.9 37.1 57 -4.7 23.5
18:00 1009 29.8 838 24.75 2.7 36.8 58 -4.8 23.3
18:05 1009 29.8 838 24.75 2.9 37.2 58 -4.5 23.8
18:10 1009 29.8 838 24.75 3.4 38.1 56 -4.6 23.7
18:15 1009 29.8 838 24.75 3.3 37.9 56 -4.8 23.4
18:20 1009 29.8 838 24.75 3.5 38.3 55 -4.8 23.4
18:25 1009 29.8 838 24.75 3.3 37.9 55 -4.8 23.3
18:30 1009 29.8 838 24.75 2.7 36.8 57 -5 22.9
18:35 1009 29.8 838 24.75 2.3 36.1 59 -5 22.9
18:40 1009 29.8 838 24.75 2.2 36 58 -5.2 22.6
18:45 1009 29.8 838 24.75 2.1 35.8 58 -5.3 22.4
18:50 1009 29.8 838 24.75 2.1 35.7 58 -5.4 22.2
18:55 1009 29.8 838 24.75 2.1 35.7 57 -5.5 22.2
19:00 1009 29.8 838 24.75 2.1 35.7 57 -5.7 21.8
19:05 1009 29.8 838 24.75 2.1 35.7 57 -5.6 21.9
19:10 1009 29.8 838 24.75 2.2 36 56 -5.5 22
19:15 1009 29.8 838 24.75 2.5 36.5 56 -5.3 22.4
19:20 1009 29.8 838 24.75 2.6 36.7 56 -5.3 22.5
19:25 1009 29.8 838 24.75 2.6 36.7 56 -5.3 22.4
19:30 1009 29.8 838 24.75 2.5 36.5 56 -5.5 22.1
19:35 1009 29.8 838 24.75 2.3 36.1 56 -5.5 22.1
19:40 1009 29.8 838 24.75 2 35.6 58 -5.4 22.2
19:45 1009 29.8 839 24.78 1.9 35.4 62 -4.7 23.6
19:50 1009 29.8 839 24.78 1.7 35.1 63 -4.6 23.7
19:55 1009 29.8 839 24.78 1.6 34.9 64 -4.6 23.8
20:00 1009 29.8 839 24.78 1.6 34.8 64 -4.5 23.9
20:05 1009 29.8 839 24.78 1.5 34.7 64 -4.6 23.8
20:10 1009 29.8 839 24.78 1.4 34.5 65 -4.4 24.1
20:15 1009 29.8 839 24.78 1.2 34.1 67 -4.3 24.2
20:20 1009 29.8 839 24.78 0.9 33.6 67 -4.5 23.9
20:25 1009 29.8 839 24.78 0.2 32.4 69 -4.8 23.3
20:30 1009 29.8 839 24.78 0.1 32.1 70 -4.7 23.5
20:35 1009 29.8 839 24.78 0.3 32.6 68 -4.9 23.2
20:40 1010 29.83 839 24.78 0.2 32.4 69 -4.7 23.5
20:45 1010 29.83 839 24.78 0.3 32.5 69 -4.8 23.3
20:50 1010 29.83 839 24.78 0.1 32.3 70 -4.7 23.5
20:55 1010 29.83 839 24.78 -0.1 31.9 70 -4.9 23.1
21:00 1010 29.83 839 24.78 -0.1 31.8 70 -4.9 23.1
21:05 1010 29.83 839 24.78 0.1 32.1 71 -4.7 23.6
21:10 1010 29.83 839 24.78 0.4 32.7 70 -4.5 23.9
21:15 1010 29.83 839 24.78 0.5 32.9 69 -4.4 24
21:20 1010 29.83 839 24.78 0.5 32.9 70 -4.4 24
21:25 1010 29.83 839 24.78 0.5 32.9 70 -4.3 24.2
21:30 1010 29.83 839 24.78 0.4 32.6 71 -4.3 24.3
21:35 1010 29.83 839 24.78 0.2 32.4 72 -4.3 24.3
21:40 1010 29.83 839 24.78 0.3 32.6 72 -4.1 24.7
21:45 1010 29.83 839 24.78 0.4 32.7 73 -3.9 25
21:50 1010 29.83 839 24.78 0.4 32.6 75 -3.6 25.5
21:55 1010 29.83 839 24.78 0.3 32.5 76 -3.5 25.7
22:00 1010 29.83 839 24.78 0.2 32.4 77 -3.4 26
22:05 1010 29.83 839 24.78 0.2 32.4 78 -3.2 26.2
22:10 1010 29.83 839 24.78 0.2 32.3 79 -3.1 26.5
22:15 1010 29.83 839 24.78 0.2 32.4 79 -3 26.6
22:20 1010 29.83 839 24.78 0.1 32.2 80 -2.9 26.7
22:25 1010 29.83 839 24.78 -0.3 31.5 82 -3.1 26.4
22:30 1010 29.83 839 24.78 -0.5 31.1 83 -3.1 26.4
22:35 1010 29.83 839 24.78 -0.5 31 83 -3 26.5
22:40 1010 29.83 839 24.78 -0.5 31.1 85 -2.8 27
22:45 1010 29.83 839 24.78 -0.7 30.8 86 -2.8 26.9
22:50 1010 29.83 839 24.78 -0.9 30.4 86 -3 26.7
22:55 1010 29.83 839 24.78 -1.1 30.1 86 -3.1 26.5
23:00 1010 29.83 839 24.78 -1.2 29.8 87 -3.1 26.4
23:05 1010 29.83 839 24.78 -1.3 29.6 88 -3.1 26.4
23:10 1010 29.83 839 24.78 -1.3 29.6 88 -3.1 26.4
23:15 1010 29.83 839 24.78 -1.4 29.4 88 -3.2 26.3
23:20 1010 29.83 839 24.78 -1.4 29.5 88 -3.1 26.3
23:25 1010 29.83 839 24.78 -1.4 29.5 88 -3.2 26.3
23:30 1010 29.83 839 24.78 -1.4 29.4 87 -3.3 26.1
23:35 1010 29.83 839 24.78 -1.6 29.1 87 -3.4 25.8
23:40 1010 29.83 839 24.78 -1.6 29.1 87 -3.5 25.7
23:45 1010 29.83 839 24.78 -1.6 29.1 86 -3.6 25.6
23:50 1010 29.83 839 24.78 -1.6 29.2 86 -3.6 25.5
23:55 1010 29.83 839 24.78 -1.6 29.2 85 -3.7 25.3
24:00 1010 29.83 839 24.78 -1.7 29 84 -4 24.8